Happy Valentine's Day! 

Flight Track Log - Related Links

Times and Time Zones

All times are in EDT time to prevent confusion due to time zone crossing. See the DAL3982 flight status page for this flight to view local times or setup timezone preferences in your user account.


Time Position Orientation Groundspeed Altitude Reporting Facility
EDT Latitude Longitude Course Direction KTS MPH feet Rate Location/Type
Tue 09:15:45 PM 33.6500 -84.3833 North 180 207 2,400  Level Atlanta TRACON
Tue 09:16:51 PM 33.6667 -84.3000 76° East 261 300 4,200 2,000 Climbing Atlanta TRACON
Tue 09:17:51 PM 33.6833 -84.2000 79° East 287 330 6,600 2,650 Climbing Atlanta TRACON
Tue 09:18:00 PM 33.9229 -84.2562 320° Northwest  Level FlightAware Approximate
Tue 09:18:51 PM 33.7500 -84.1833 12° North 289 333 9,500  Level Atlanta TRACON
Tue 09:19:00 PM 34.0398 -84.2667 North  Level FlightAware Approximate
Tue 09:19:45 PM 33.8333 -84.1833 360° North 331 381 10,300  Level Atlanta TRACON
Tue 09:20:00 PM 34.1599 -84.2667 North  Level FlightAware Approximate
Tue 09:21:00 PM 34.2800 -84.2667 North  Level FlightAware Approximate
Tue 09:21:53 PM 34.0342 -84.2769 339° North 367 422 14,200  Level Atlanta Center
Tue 09:22:53 PM 34.1447 -84.2797 359° North 372 428 16,200 1,850 Climbing Atlanta Center
Tue 09:23:53 PM 34.2553 -84.2825 359° North 398 458 17,900 1,650 Climbing Atlanta Center
Tue 09:24:53 PM 34.3681 -84.2628 North 403 464 19,500 1,550 Climbing Atlanta Center
Tue 09:25:53 PM 34.4828 -84.2353 11° North 408 470 21,000 1,400 Climbing Atlanta Center
Tue 09:26:53 PM 34.5997 -84.2103 10° North 418 481 22,300 1,150 Climbing Atlanta Center
Tue 09:27:53 PM 34.7144 -84.1803 12° North 418 481 23,300 1,000 Climbing Atlanta Center
Tue 09:28:53 PM 34.8397 -84.1525 10° North 432 497 24,300 1,000 Climbing Atlanta Center
Tue 09:29:53 PM 34.9650 -84.1250 10° North 444 511 25,300 950 Climbing Atlanta Center
Tue 09:30:53 PM 35.0922 -84.0947 11° North 456 525 26,200 800 Climbing Atlanta Center
Tue 09:31:53 PM 35.2239 -84.0617 12° North 466 536 26,900 900 Climbing Atlanta Center
Tue 09:32:53 PM 35.3572 -84.0311 11° North 476 548 28,000 1,200 Climbing Atlanta Center
Tue 09:33:53 PM 35.4867 -83.9981 12° North 476 548 29,300 1,000 Climbing Atlanta Center
Tue 09:34:53 PM 35.6161 -83.9647 12° North 476 548 30,000 700 Climbing Atlanta Center
Tue 09:35:53 PM 35.7494 -83.9339 11° North 476 548 30,700 650 Climbing Atlanta Center
Tue 09:36:53 PM 35.8831 -83.9003 12° North 481 554 31,300 650 Climbing Atlanta Center
Tue 09:37:53 PM 36.0100 -83.8308 24° Northeast 493 567 32,000 700 Climbing Atlanta Center
Tue 09:38:53 PM 36.1331 -83.7533 27° Northeast 493 567 32,700 651 Climbing Atlanta Center
Tue 09:41:25 PM 36.4433 -83.5528 27° Northeast 492 566 34,300 592 Climbing Indianapolis Center
Tue 09:42:26 PM 36.5500 -83.4853 27° Northeast 492 566 34,800 344 Climbing Indianapolis Center
Tue 09:43:27 PM 36.6711 -83.4092 27° Northeast 483 556 35,000 98 Climbing Indianapolis Center
Tue 09:44:29 PM 36.8122 -83.3175 27° Northeast 483 556 35,000  Level Indianapolis Center
Tue 09:45:30 PM 36.9336 -83.2397 27° Northeast 484 557 35,000  Level Indianapolis Center
Tue 09:46:31 PM 37.0547 -83.1611 27° Northeast 482 555 35,000  Level Indianapolis Center
Tue 09:47:33 PM 37.1747 -83.0831 27° Northeast 480 552 35,000  Level Indianapolis Center
Tue 09:48:34 PM 37.2919 -82.9939 31° Northeast 487 560 35,000  Level Indianapolis Center
Tue 09:49:36 PM 37.4019 -82.8911 37° Northeast 489 563 35,000  Level Indianapolis Center
Tue 09:50:37 PM 37.5133 -82.7889 36° Northeast 492 566 35,000  Level Indianapolis Center
Tue 09:51:39 PM 37.6261 -82.6847 36° Northeast 498 573 35,000  Level Indianapolis Center
Tue 09:52:40 PM 37.7367 -82.5811 37° Northeast 497 572 35,000  Level Indianapolis Center
Tue 09:53:41 PM 37.8494 -82.4772 36° Northeast 500 575 35,000  Level Indianapolis Center
Tue 09:54:43 PM 37.9619 -82.3733 36° Northeast 499 574 35,000  Level Indianapolis Center
Tue 09:55:44 PM 38.0925 -82.2478 37° Northeast 501 577 35,000  Level Indianapolis Center
Tue 09:56:46 PM 38.1886 -82.1583 36° Northeast 505 581 35,000  Level Indianapolis Center
Tue 09:57:47 PM 38.3011 -82.0517 37° Northeast 504 580 35,000  Level Indianapolis Center
Tue 09:58:49 PM 38.4339 -81.9242 37° Northeast 497 572 35,000  Level Indianapolis Center
Tue 09:59:50 PM 38.5461 -81.8183 36° Northeast 500 575 35,000  Level Indianapolis Center
Tue 10:00:51 PM 38.6589 -81.7119 36° Northeast 499 574 35,000  Level Indianapolis Center
Tue 10:01:53 PM 38.7614 -81.6092 38° Northeast 494 568 35,000  Level Indianapolis Center
Tue 10:02:54 PM 38.8892 -81.4881 36° Northeast 505 581 35,000  Level Indianapolis Center
Tue 10:03:56 PM 39.0000 -81.3800 37° Northeast 497 572 35,000  Level Indianapolis Center
Tue 10:04:57 PM 39.1103 -81.2719 37° Northeast 496 571 35,000  Level Indianapolis Center
Tue 10:05:58 PM 39.2217 -81.1633 37° Northeast 500 575 35,000  Level Indianapolis Center
Tue 10:07:00 PM 39.3311 -81.0550 37° Northeast 496 571 35,000  Level Indianapolis Center
Tue 10:08:01 PM 39.4417 -80.9458 37° Northeast 497 572 35,000  Level Indianapolis Center
Tue 10:09:02 PM 39.5519 -80.8372 37° Northeast 497 572 35,000  Level Indianapolis Center
Tue 10:09:50 PM 39.6544 -80.7367 37° Northeast 507 583 35,000  Level Cleveland Center
Tue 10:10:50 PM 39.7628 -80.6317 37° Northeast 502 578 35,000  Level Cleveland Center
Tue 10:11:50 PM 39.8733 -80.5208 38° Northeast 502 578 35,000  Level Cleveland Center
Tue 10:12:50 PM 39.9817 -80.4097 38° Northeast 502 578 35,000  Level Cleveland Center
Tue 10:13:50 PM 40.0897 -80.3008 38° Northeast 490 564 35,000  Level Cleveland Center
Tue 10:14:50 PM 40.2000 -80.1917 37° Northeast 490 564 35,000  Level Cleveland Center
Tue 10:15:50 PM 40.3078 -80.0822 38° Northeast 496 571 35,000  Level Cleveland Center
Tue 10:16:50 PM 40.4053 -79.9750 40° Northeast 490 564 35,000  Level Cleveland Center
Tue 10:17:50 PM 40.5131 -79.8675 37° Northeast 495 570 35,000  Level Cleveland Center
Tue 10:18:50 PM 40.6208 -79.7569 38° Northeast 495 570 35,000  Level Cleveland Center
Tue 10:19:50 PM 40.7283 -79.6461 38° Northeast 490 564 35,000  Level Cleveland Center
Tue 10:20:50 PM 40.8378 -79.5319 38° Northeast 490 564 35,000  Level Cleveland Center
Tue 10:21:50 PM 40.9472 -79.4175 38° Northeast 490 564 35,000  Level Cleveland Center
Tue 10:22:50 PM 41.0544 -79.3056 38° Northeast 490 564 35,000  Level Cleveland Center
Tue 10:23:50 PM 41.1594 -79.1931 39° Northeast 490 564 35,000  Level Cleveland Center
Tue 10:24:50 PM 41.2686 -79.0803 38° Northeast 490 564 35,000  Level Cleveland Center
Tue 10:25:50 PM 41.3775 -78.9644 39° Northeast 490 564 35,000  Level Cleveland Center
Tue 10:26:50 PM 41.4842 -78.8508 39° Northeast 490 564 35,000  Level Cleveland Center
Tue 10:27:50 PM 41.5886 -78.7369 39° Northeast 490 564 35,000  Level Cleveland Center
Tue 10:28:50 PM 41.6953 -78.6225 39° Northeast 490 564 35,000  Level Cleveland Center
Tue 10:29:50 PM 41.8017 -78.5053 39° Northeast 490 564 35,000  Level Cleveland Center
Tue 10:30:50 PM 41.9058 -78.3931 39° Northeast 490 564 35,000  Level Cleveland Center
Tue 10:31:50 PM 42.0119 -78.2775 39° Northeast 490 564 35,000  Level Cleveland Center
Tue 10:32:50 PM 42.1303 -78.1500 39° Northeast 490 564 35,000  Level Cleveland Center
Tue 10:33:50 PM 42.2342 -78.0339 40° Northeast 490 564 35,000  Level Cleveland Center
Tue 10:34:50 PM 42.3397 -77.9200 39° Northeast 485 558 35,000  Level Cleveland Center
Tue 10:35:50 PM 42.4433 -77.8061 39° Northeast 485 558 35,000  Level Cleveland Center
Tue 10:36:50 PM 42.5511 -77.6886 39° Northeast 485 558 35,000  Level Cleveland Center
Tue 10:37:50 PM 42.6544 -77.5736 39° Northeast 485 558 35,000  Level Cleveland Center
Tue 10:38:50 PM 42.7494 -77.4617 41° Northeast 485 558 35,000  Level Cleveland Center
Tue 10:39:50 PM 42.8525 -77.3431 40° Northeast 485 558 35,000  Level Cleveland Center
Tue 10:41:40 PM 43.0439 -77.1286 39° Northeast 487 560 35,000  Level Boston Center
Tue 10:42:39 PM 43.1467 -77.0111 40° Northeast 487 560 35,000  Level Boston Center
Tue 10:43:39 PM 43.2514 -76.8906 40° Northeast 487 560 35,000  Level Boston Center
Tue 10:44:39 PM 43.3542 -76.7697 41° Northeast 487 560 35,000  Level Boston Center
Tue 10:45:37 PM 43.4500 -76.6333 46° Northeast 470 541 35,000  Level Montreal Center
Tue 10:46:37 PM 43.5500 -76.5167 40° Northeast 480 552 35,000  Level Montreal Center
Tue 10:47:37 PM 43.6667 -76.4000 36° Northeast 480 552 35,000 -443 Level Montreal Center
Tue 10:48:39 PM 43.7783 -76.2794 38° Northeast 482 555 34,100 -1,230 Descending Boston Center
Tue 10:49:39 PM 43.8803 -76.1561 41° Northeast 482 555 32,500 -1,550 Descending Boston Center
Tue 10:50:39 PM 43.9861 -76.0386 39° Northeast 476 548 31,000 -1,500 Descending Boston Center
Tue 10:51:39 PM 44.1017 -75.9386 32° Northeast 481 554 29,500 -1,488 Descending Boston Center
Tue 10:52:40 PM 44.2133 -75.8350 34° Northeast 481 554 28,000 -744 Descending Boston Center
Tue 10:53:40 PM 44.3244 -75.7369 32° Northeast 475 547 28,000  Level Boston Center
Tue 10:54:39 PM 44.4122 -75.6547 34° Northeast 475 547 28,000  Level Boston Center
Tue 10:55:39 PM 44.5342 -75.5447 33° Northeast 470 541 28,000  Level Boston Center
Tue 10:56:37 PM 44.6333 -75.4333 39° Northeast 470 541 28,000  Level Montreal Center
Tue 10:57:37 PM 44.7333 -75.3167 40° Northeast 470 541 28,000  Level Montreal Center
Tue 10:58:37 PM 44.8000 -75.1500 61° Northeast 490 564 28,000 -450 Level Montreal Center
Tue 10:59:37 PM 44.9000 -75.0167 43° Northeast 480 552 27,100 -2,067 Descending Montreal Center
Tue 11:01:37 PM 45.0500 -74.7667 50° Northeast 430 495 21,800 -2,633 Descending Montreal Center
Tue 11:02:37 PM 45.1167 -74.6167 58° Northeast 420 483 19,200 -2,500 Descending Montreal Center
Tue 11:03:37 PM 45.1833 -74.4500 60° Northeast 440 506 16,800 -2,300 Descending Montreal Center
Tue 11:04:37 PM 45.2333 -74.3333 59° Northeast 420 483 14,600 -2,050 Descending Montreal Center
Tue 11:05:37 PM 45.3000 -74.1833 58° Northeast 410 472 12,700 -1,800 Descending Montreal Center
Tue 11:06:37 PM 45.3500 -74.0333 65° Northeast 390 449 11,000 -1,550 Descending Montreal Center
Tue 11:07:37 PM 45.4167 -73.9667 35° Northeast 340 391 9,600 -1,450 Descending Montreal Center
Tue 11:08:37 PM 45.4833 -73.8667 46° Northeast 300 345 8,100 -1,650 Descending Montreal Center
Tue 11:09:37 PM 45.5333 -73.7833 49° Northeast 280 322 6,300 -1,700 Descending Montreal Center
Tue 11:10:37 PM 45.6000 -73.7167 35° Northeast 260 299 4,700 -1,600 Descending Montreal Center
Tue 11:11:37 PM 45.6500 -73.6667 35° Northeast 220 253 3,100 -850 Descending Montreal Center
Tue 11:12:37 PM 45.6500 -73.6000 90° East 210 242 3,000 -50 Descending Montreal Center
Tue 11:13:37 PM 45.6167 -73.5500 134° Southeast 170 196 3,000 -50 Level Montreal Center
Tue 11:14:37 PM 45.5667 -73.6000 215° Southwest 180 207 2,900 -100 Descending Montreal Center

Login

Don't have an account? Register now (free) for customized features, flight alerts, and more!